createdAt,value
2022-08-25T00:00:48.377Z,24.92
2022-08-25T00:03:22.915Z,20.15
2022-08-25T00:05:59.064Z,19.50
2022-08-25T00:08:38.342Z,20.85
2022-08-25T00:11:21.362Z,22.92
2022-08-25T00:13:51.736Z,26.88
2022-08-25T00:16:26.759Z,22.38
2022-08-25T00:19:02.491Z,19.60
2022-08-25T00:24:13.371Z,19.65
2022-08-25T00:26:49.279Z,20.10
2022-08-25T00:29:26.099Z,22.08
2022-08-25T00:32:01.247Z,24.37
2022-08-25T00:34:37.855Z,23.02
2022-08-25T00:37:13.496Z,21.77
2022-08-25T00:39:51.807Z,22.58
2022-08-25T00:42:27.768Z,21.95
2022-08-25T00:45:03.328Z,18.25
2022-08-25T00:47:40.999Z,24.50
2022-08-25T00:50:15.647Z,18.33
2022-08-25T00:52:54.235Z,18.30
2022-08-25T00:55:33.141Z,21.05
2022-08-25T00:58:12.080Z,28.48
2022-08-25T01:00:48.584Z,24.52
2022-08-25T01:03:26.158Z,19.75
2022-08-25T01:06:10.533Z,18.13
2022-08-25T01:08:42.969Z,19.10
2022-08-25T01:11:21.913Z,17.60
2022-08-25T01:13:57.390Z,18.98
2022-08-25T01:16:32.462Z,21.67
2022-08-25T01:19:07.680Z,18.45
2022-08-25T01:21:46.447Z,23.27
2022-08-25T01:24:26.971Z,20.55
2022-08-25T01:27:02.008Z,19.00
2022-08-25T01:29:36.648Z,17.95
2022-08-25T01:32:15.572Z,17.42
2022-08-25T01:34:47.662Z,17.60
2022-08-25T01:37:25.744Z,18.57
2022-08-25T01:40:00.748Z,18.10
2022-08-25T01:42:41.008Z,17.02
2022-08-25T01:45:16.273Z,19.70
2022-08-25T01:47:50.507Z,17.75
2022-08-25T01:50:29.168Z,17.75
2022-08-25T01:53:07.375Z,18.42
2022-08-25T01:55:54.445Z,18.10
2022-08-25T01:58:30.643Z,19.77
2022-08-25T02:01:05.471Z,18.83
2022-08-25T02:03:42.257Z,20.10
2022-08-25T02:06:18.839Z,20.05
2022-08-25T02:08:58.010Z,18.25
2022-08-25T02:11:32.586Z,16.88
2022-08-25T02:14:06.653Z,18.77
2022-08-25T02:16:42.197Z,17.60
2022-08-25T02:19:16.813Z,21.90
2022-08-25T02:21:52.363Z,20.15
2022-08-25T02:24:31.576Z,18.80
2022-08-25T02:27:05.941Z,22.15
2022-08-25T02:29:41.094Z,25.67
2022-08-25T02:34:49.805Z,29.33
2022-08-25T02:37:25.301Z,22.80
2022-08-25T02:40:02.753Z,22.35
2022-08-25T02:42:37.937Z,21.50
2022-08-25T02:45:14.185Z,18.60
2022-08-25T02:47:51.211Z,19.90
2022-08-25T02:50:26.565Z,26.83
2022-08-25T02:53:01.074Z,28.55
2022-08-25T02:55:40.094Z,27.75
2022-08-25T02:58:15.028Z,24.30
2022-08-25T03:00:50.224Z,22.53
2022-08-25T03:05:59.583Z,21.80
2022-08-25T03:08:34.134Z,19.65
2022-08-25T03:11:11.306Z,16.52
2022-08-25T03:13:46.391Z,16.80
2022-08-25T03:16:20.914Z,16.63
2022-08-25T03:18:58.506Z,15.48
2022-08-25T03:21:35.281Z,16.02
2022-08-25T03:24:10.312Z,14.30
2022-08-25T03:26:56.316Z,20.58
2022-08-25T03:29:31.724Z,18.05
2022-08-25T03:32:07.081Z,19.13
2022-08-25T03:34:42.597Z,16.20
2022-08-25T03:37:17.424Z,15.65
2022-08-25T03:39:56.620Z,20.63
2022-08-25T03:42:31.116Z,19.60
2022-08-25T03:45:11.934Z,15.35
2022-08-25T03:47:49.212Z,25.85
2022-08-25T03:50:25.014Z,20.00
2022-08-25T03:53:00.528Z,20.75
2022-08-25T03:55:34.429Z,25.23
2022-08-25T03:58:08.589Z,23.65
2022-08-25T04:00:45.833Z,16.88
2022-08-25T04:03:21.373Z,22.45
2022-08-25T04:05:55.961Z,19.53
2022-08-25T04:08:32.818Z,22.80
2022-08-25T04:11:13.091Z,16.70
2022-08-25T04:13:48.126Z,20.85
2022-08-25T04:16:22.255Z,15.35
2022-08-25T04:18:59.622Z,14.80
2022-08-25T04:21:35.469Z,14.55
2022-08-25T04:24:10.111Z,20.17
2022-08-25T04:26:46.868Z,15.05
2022-08-25T04:29:24.072Z,16.50
2022-08-25T04:31:59.841Z,19.27
2022-08-25T04:34:37.546Z,19.10
2022-08-25T04:37:12.734Z,15.25
2022-08-25T04:39:50.068Z,21.00
2022-08-25T04:42:26.585Z,21.83
2022-08-25T04:45:02.193Z,20.65
2022-08-25T04:47:40.595Z,21.17
2022-08-25T04:50:19.337Z,22.58
2022-08-25T04:52:54.038Z,20.30
2022-08-25T04:55:28.944Z,22.55
2022-08-25T04:58:03.839Z,26.23
2022-08-25T05:00:38.942Z,31.77
2022-08-25T05:03:17.821Z,31.95
2022-08-25T05:05:52.012Z,24.65
2022-08-25T05:08:30.368Z,36.35
2022-08-25T05:11:09.403Z,32.35
2022-08-25T05:13:45.392Z,37.75
2022-08-25T05:16:26.237Z,31.77
2022-08-25T05:19:01.890Z,29.53
2022-08-25T05:21:38.689Z,30.47
2022-08-25T05:24:16.787Z,25.80
2022-08-25T05:26:51.694Z,22.27
2022-08-25T05:29:27.372Z,20.03
2022-08-25T05:34:38.411Z,29.83
2022-08-25T05:37:12.693Z,27.80
2022-08-25T05:39:50.337Z,28.05
2022-08-25T05:42:28.552Z,34.72
2022-08-25T05:45:03.099Z,32.55
2022-08-25T05:47:37.866Z,38.10
2022-08-25T05:50:14.726Z,27.23
2022-08-25T05:52:48.634Z,27.27
2022-08-25T05:55:28.354Z,30.70
2022-08-25T05:58:03.751Z,30.60
2022-08-25T06:00:40.518Z,29.45
2022-08-25T06:03:14.515Z,25.85
2022-08-25T06:05:48.708Z,29.17
2022-08-25T06:08:23.731Z,23.48
2022-08-25T06:11:00.820Z,28.15
2022-08-25T06:13:37.661Z,23.77
2022-08-25T06:16:13.278Z,21.02
2022-08-25T06:18:48.293Z,25.98
2022-08-25T06:21:24.491Z,22.40
2022-08-25T06:23:59.272Z,21.70
2022-08-25T06:26:37.324Z,23.83
2022-08-25T06:29:14.329Z,25.88
2022-08-25T06:31:50.192Z,18.70
2022-08-25T06:34:26.977Z,22.48
2022-08-25T06:37:03.842Z,29.25
2022-08-25T06:39:39.526Z,20.00
2022-08-25T06:44:51.232Z,19.20
2022-08-25T06:47:26.670Z,25.40
2022-08-25T06:50:00.815Z,23.55
2022-08-25T06:52:36.103Z,22.90
2022-08-25T06:55:12.702Z,23.03
2022-08-25T06:57:50.031Z,25.55
2022-08-25T07:00:30.542Z,19.25
2022-08-25T07:03:07.648Z,23.40
2022-08-25T07:05:44.115Z,22.58
2022-08-25T07:08:19.570Z,20.88
2022-08-25T07:10:53.691Z,22.25
2022-08-25T07:13:33.979Z,18.05
2022-08-25T07:16:11.428Z,20.73
2022-08-25T07:18:46.487Z,23.55
2022-08-25T07:21:24.809Z,21.07
2022-08-25T07:24:04.384Z,20.60
2022-08-25T07:26:42.569Z,21.42
2022-08-25T07:29:26.569Z,25.33
2022-08-25T07:32:09.744Z,21.02
2022-08-25T07:34:58.684Z,21.00
2022-08-25T07:37:47.740Z,19.20
2022-08-25T07:40:24.938Z,22.55
2022-08-25T07:43:00.926Z,23.23
2022-08-25T07:45:46.819Z,19.33
2022-08-25T07:48:25.392Z,23.35
2022-08-25T07:51:07.457Z,17.67
2022-08-25T07:53:44.744Z,21.25
2022-08-25T07:56:19.757Z,19.55
2022-08-25T07:58:54.530Z,16.98
2022-08-25T08:01:27.237Z,21.23
2022-08-25T08:04:04.632Z,17.70
2022-08-25T08:06:38.680Z,18.20
2022-08-25T08:09:13.677Z,15.40
2022-08-25T08:11:53.897Z,14.02
2022-08-25T08:14:28.052Z,15.00
2022-08-25T08:17:04.515Z,15.10
2022-08-25T08:19:45.296Z,15.07
2022-08-25T08:22:20.933Z,13.65
2022-08-25T08:24:57.049Z,10.93
2022-08-25T08:27:32.403Z,10.90
2022-08-25T08:30:09.191Z,11.45
2022-08-25T08:33:08.711Z,9.85
2022-08-25T08:35:42.919Z,10.23
2022-08-25T08:38:22.253Z,11.83
2022-08-25T08:41:23.320Z,10.13
2022-08-25T08:46:35.675Z,9.70
2022-08-25T08:49:12.954Z,9.95
2022-08-25T08:51:55.424Z,9.47
2022-08-25T08:54:34.166Z,9.70
2022-08-25T08:57:13.027Z,12.85
2022-08-25T08:59:51.242Z,10.48
2022-08-25T09:02:39.485Z,9.38
2022-08-25T09:05:24.947Z,8.77
2022-08-25T09:08:10.438Z,9.53
2022-08-25T09:10:54.288Z,8.55
2022-08-25T09:13:34.923Z,7.10
2022-08-25T09:16:34.010Z,7.55
2022-08-25T09:19:21.224Z,7.00
2022-08-25T09:21:57.129Z,7.55
2022-08-25T09:24:47.242Z,8.20
2022-08-25T09:27:27.866Z,7.38
2022-08-25T09:30:05.200Z,7.00
2022-08-25T09:32:48.982Z,5.90
2022-08-25T09:35:29.064Z,5.85
2022-08-25T09:38:05.577Z,5.18
2022-08-25T09:40:43.568Z,5.13
2022-08-25T09:43:24.881Z,5.10
2022-08-25T09:46:03.257Z,4.20
2022-08-25T09:48:45.471Z,4.75
2022-08-25T09:51:24.373Z,4.20
2022-08-25T09:53:59.898Z,4.32
2022-08-25T09:56:39.968Z,4.25
2022-08-25T09:59:34.497Z,4.55
2022-08-25T10:02:15.062Z,5.77
2022-08-25T10:04:51.232Z,4.60
2022-08-25T10:07:28.756Z,4.22
2022-08-25T10:10:04.463Z,5.03
2022-08-25T10:12:51.276Z,4.40
2022-08-25T10:15:30.719Z,5.13
2022-08-25T10:18:25.626Z,5.07
2022-08-25T10:21:10.092Z,4.90
2022-08-25T10:23:46.299Z,4.50
2022-08-25T10:26:26.840Z,5.30
2022-08-25T10:29:13.846Z,4.45
2022-08-25T10:31:52.215Z,4.60
2022-08-25T10:34:35.836Z,4.72
2022-08-25T10:37:16.705Z,4.93
2022-08-25T10:39:58.224Z,5.18
2022-08-25T10:42:40.213Z,5.60
2022-08-25T10:45:17.166Z,5.20
2022-08-25T10:48:19.871Z,5.13
2022-08-25T10:51:01.847Z,5.63
2022-08-25T10:53:44.361Z,6.70
2022-08-25T10:56:22.261Z,5.22
2022-08-25T10:59:20.798Z,5.30
2022-08-25T11:02:12.652Z,6.00
2022-08-25T11:04:51.533Z,5.35
2022-08-25T11:07:28.692Z,5.25
2022-08-25T11:10:06.887Z,5.68
2022-08-25T11:12:43.546Z,4.88
2022-08-25T11:15:24.453Z,5.40
2022-08-25T11:18:02.166Z,5.63
2022-08-25T11:20:42.142Z,6.18
2022-08-25T11:23:21.517Z,5.20
2022-08-25T11:26:02.174Z,4.68
2022-08-25T11:28:51.046Z,5.10
2022-08-25T11:31:29.428Z,5.18
2022-08-25T11:34:04.922Z,5.97
2022-08-25T11:36:45.872Z,4.40
2022-08-25T11:39:25.127Z,5.45
2022-08-25T11:42:04.169Z,5.57
2022-08-25T11:45:16.249Z,5.25
2022-08-25T11:47:50.184Z,5.97
2022-08-25T11:50:31.527Z,6.07
2022-08-25T11:53:21.578Z,6.18
2022-08-25T11:56:06.026Z,5.85
2022-08-25T11:58:46.738Z,6.00
2022-08-25T12:01:53.569Z,5.90
2022-08-25T12:04:47.144Z,5.80
2022-08-25T12:08:14.317Z,5.38
2022-08-25T12:11:11.936Z,6.40
2022-08-25T12:13:46.120Z,6.53
2022-08-25T12:16:43.669Z,6.38
2022-08-25T12:19:32.552Z,6.63
2022-08-25T12:22:36.869Z,6.18
2022-08-25T12:25:12.707Z,6.33
2022-08-25T12:27:52.508Z,6.47
2022-08-25T12:30:29.314Z,7.57
2022-08-25T12:33:08.099Z,6.28
2022-08-25T12:35:51.911Z,5.97
2022-08-25T12:38:32.458Z,6.63
2022-08-25T12:41:11.736Z,6.18
2022-08-25T12:43:50.876Z,5.53
2022-08-25T12:46:41.259Z,6.20
2022-08-25T12:49:33.470Z,5.85
2022-08-25T12:52:10.221Z,5.95
2022-08-25T12:54:50.628Z,6.47
2022-08-25T12:57:43.842Z,6.80
2022-08-25T13:03:24.995Z,5.80
2022-08-25T13:06:15.859Z,5.80
2022-08-25T13:09:02.478Z,5.80
2022-08-25T13:11:45.459Z,6.57
2022-08-25T13:14:23.113Z,5.88
2022-08-25T13:17:03.497Z,5.47
2022-08-25T13:19:39.887Z,6.20
2022-08-25T13:22:18.624Z,5.75
2022-08-25T13:25:01.975Z,5.05
2022-08-25T13:27:37.690Z,5.27
2022-08-25T13:30:19.787Z,5.90
2022-08-25T13:32:57.795Z,6.10
2022-08-25T13:35:33.718Z,5.22
2022-08-25T13:38:16.405Z,5.70
2022-08-25T13:40:51.788Z,6.63
2022-08-25T13:43:30.201Z,5.97
2022-08-25T13:46:06.762Z,5.85
2022-08-25T13:51:31.207Z,5.40
2022-08-25T13:54:07.347Z,6.75
2022-08-25T13:56:43.411Z,6.28
2022-08-25T13:59:25.419Z,5.80
2022-08-25T14:02:03.321Z,5.13
2022-08-25T14:04:52.865Z,6.22
2022-08-25T14:07:33.713Z,6.22
2022-08-25T14:10:11.218Z,6.57
2022-08-25T14:12:49.754Z,5.05
2022-08-25T14:15:22.325Z,5.30
2022-08-25T14:18:04.682Z,5.55
2022-08-25T14:20:46.240Z,5.82
2022-08-25T14:23:24.409Z,6.10
2022-08-25T14:26:00.272Z,5.70
2022-08-25T14:28:36.704Z,5.57
2022-08-25T14:31:13.899Z,5.95
2022-08-25T14:33:53.311Z,5.15
2022-08-25T14:36:37.916Z,5.55
2022-08-25T14:41:52.687Z,5.18
2022-08-25T14:44:33.319Z,6.18
2022-08-25T14:47:09.032Z,6.07
2022-08-25T14:49:47.600Z,5.80
2022-08-25T14:52:27.869Z,6.40
2022-08-25T14:55:02.830Z,7.60
2022-08-25T14:57:39.864Z,6.00
2022-08-25T15:00:15.485Z,5.90
2022-08-25T15:02:57.470Z,6.32
2022-08-25T15:05:33.508Z,6.55
2022-08-25T15:08:23.681Z,6.82
2022-08-25T15:10:58.228Z,6.72
2022-08-25T15:13:33.585Z,5.40
2022-08-25T15:16:10.741Z,6.28
2022-08-25T15:18:47.923Z,5.70
2022-08-25T15:21:24.392Z,5.05
2022-08-25T15:24:03.935Z,6.75
2022-08-25T15:26:42.937Z,6.37
2022-08-25T15:29:18.015Z,6.03
2022-08-25T15:31:54.012Z,5.50
2022-08-25T15:34:29.519Z,5.53
2022-08-25T15:37:10.885Z,5.95
2022-08-25T15:39:49.170Z,6.15
2022-08-25T15:42:26.054Z,5.57
2022-08-25T15:45:01.601Z,5.82
2022-08-25T15:47:37.550Z,6.05
2022-08-25T15:50:17.073Z,6.90
2022-08-25T15:52:51.636Z,5.15
2022-08-25T15:55:29.424Z,6.55
2022-08-25T15:58:04.489Z,5.75
2022-08-25T16:00:39.867Z,5.93
2022-08-25T16:03:13.978Z,6.10
2022-08-25T16:05:49.565Z,6.65
2022-08-25T16:08:24.216Z,5.40
2022-08-25T16:11:02.708Z,6.20
2022-08-25T16:13:36.665Z,5.25
2022-08-25T16:16:10.607Z,6.28
2022-08-25T16:18:47.460Z,5.70
2022-08-25T16:21:25.606Z,5.45
2022-08-25T16:24:07.253Z,6.40
2022-08-25T16:26:48.512Z,6.15
2022-08-25T16:29:22.916Z,5.25
2022-08-25T16:31:58.811Z,5.35
2022-08-25T16:34:36.951Z,6.85
2022-08-25T16:37:11.647Z,5.60
2022-08-25T16:39:46.384Z,5.75
2022-08-25T16:42:23.988Z,5.65
2022-08-25T16:44:58.499Z,7.10
2022-08-25T16:47:37.388Z,6.22
2022-08-25T16:50:15.393Z,6.90
2022-08-25T16:53:07.919Z,5.63
2022-08-25T16:55:44.794Z,6.57
2022-08-25T16:58:23.171Z,6.72
2022-08-25T17:01:01.432Z,6.55
2022-08-25T17:03:37.276Z,7.03
2022-08-25T17:06:11.979Z,6.80
2022-08-25T17:08:49.719Z,6.03
2022-08-25T17:11:24.588Z,6.72
2022-08-25T17:14:02.453Z,6.90
2022-08-25T17:16:37.674Z,6.20
2022-08-25T17:19:13.011Z,6.95
2022-08-25T17:24:29.614Z,6.85
2022-08-25T17:27:05.706Z,7.88
2022-08-25T17:29:43.658Z,7.17
2022-08-25T17:32:18.378Z,6.32
2022-08-25T17:34:52.811Z,6.20
2022-08-25T17:37:26.541Z,6.90
2022-08-25T17:40:02.552Z,7.28
2022-08-25T17:42:36.909Z,8.33
2022-08-25T17:45:14.802Z,7.07
2022-08-25T17:47:48.632Z,7.65
2022-08-25T17:50:24.954Z,7.82
2022-08-25T17:52:58.607Z,7.45
2022-08-25T17:55:33.981Z,8.38
2022-08-25T18:00:45.981Z,6.57
2022-08-25T18:03:19.604Z,7.75
2022-08-25T18:05:53.698Z,8.40
2022-08-25T18:08:32.177Z,8.75
2022-08-25T18:11:09.594Z,8.60
2022-08-25T18:13:43.947Z,8.25
2022-08-25T18:16:20.345Z,7.43
2022-08-25T18:18:54.817Z,8.95
2022-08-25T18:21:30.515Z,7.85
2022-08-25T18:24:04.685Z,8.23
2022-08-25T18:26:38.676Z,6.45
2022-08-25T18:29:13.419Z,7.35
2022-08-25T18:31:51.996Z,7.67
2022-08-25T18:34:26.918Z,5.95
2022-08-25T18:37:24.582Z,7.07
2022-08-25T18:40:11.081Z,7.50
2022-08-25T18:42:45.719Z,6.88
2022-08-25T18:45:19.996Z,7.05
2022-08-25T18:47:57.718Z,6.68
2022-08-25T18:50:32.893Z,6.20
2022-08-25T18:53:07.023Z,7.63
2022-08-25T18:55:43.282Z,7.75
2022-08-25T18:58:19.621Z,7.65
2022-08-25T19:00:54.942Z,9.02
2022-08-25T19:06:06.035Z,9.15
2022-08-25T19:08:41.812Z,9.50
2022-08-25T19:11:16.835Z,8.90
2022-08-25T19:16:34.707Z,8.88
2022-08-25T19:19:12.711Z,7.85
2022-08-25T19:21:48.160Z,8.80
2022-08-25T19:24:22.738Z,7.40
2022-08-25T19:26:57.720Z,7.40
2022-08-25T19:29:31.858Z,7.97
2022-08-25T19:32:06.876Z,8.75
2022-08-25T19:34:46.328Z,8.82
2022-08-25T19:37:25.219Z,8.05
2022-08-25T19:39:59.819Z,8.27
2022-08-25T19:42:38.202Z,7.00
2022-08-25T19:45:13.596Z,6.88
2022-08-25T19:47:47.563Z,7.55
2022-08-25T19:50:24.352Z,6.85
2022-08-25T19:52:58.653Z,7.88
2022-08-25T19:55:32.662Z,7.57
2022-08-25T19:58:06.928Z,6.97
2022-08-25T20:00:46.203Z,7.97
2022-08-25T20:03:22.704Z,8.70
2022-08-25T20:05:59.241Z,8.55
2022-08-25T20:08:34.606Z,8.85
2022-08-25T20:11:08.888Z,7.30
2022-08-25T20:13:42.620Z,8.55
2022-08-25T20:16:16.761Z,9.85
2022-08-25T20:18:53.747Z,7.10
2022-08-25T20:21:30.839Z,6.67
2022-08-25T20:24:17.565Z,7.75
2022-08-25T20:26:51.772Z,7.82
2022-08-25T20:29:27.038Z,6.45
2022-08-25T20:32:01.461Z,7.93
2022-08-25T20:34:38.332Z,6.82
2022-08-25T20:37:16.256Z,9.05
2022-08-25T20:39:50.642Z,8.32
2022-08-25T20:42:25.193Z,7.50
2022-08-25T20:45:00.922Z,8.32
2022-08-25T20:47:34.979Z,7.55
2022-08-25T20:50:10.546Z,7.17
2022-08-25T20:52:48.520Z,8.18
2022-08-25T20:55:22.707Z,8.73
2022-08-25T20:57:56.708Z,8.23
2022-08-25T21:00:33.574Z,8.55
2022-08-25T21:03:11.233Z,9.65
2022-08-25T21:05:54.125Z,8.00
2022-08-25T21:08:31.795Z,7.85
2022-08-25T21:11:06.587Z,9.98
2022-08-25T21:13:40.934Z,8.85
2022-08-25T21:16:15.188Z,10.18
2022-08-25T21:18:50.118Z,10.65
2022-08-25T21:21:25.055Z,11.73
2022-08-25T21:24:05.207Z,10.85
2022-08-25T21:26:45.058Z,8.50
2022-08-25T21:29:23.782Z,9.23
2022-08-25T21:31:59.271Z,7.85
2022-08-25T21:34:33.828Z,9.10
2022-08-25T21:37:10.099Z,8.93
2022-08-25T21:42:22.638Z,10.25
2022-08-25T21:44:56.852Z,9.57
2022-08-25T21:47:30.905Z,10.15
2022-08-25T21:50:05.833Z,9.40
2022-08-25T21:52:40.111Z,8.63
2022-08-25T21:55:20.337Z,9.95
2022-08-25T21:57:56.730Z,8.27
2022-08-25T22:00:32.736Z,7.25
2022-08-25T22:03:08.011Z,7.50
2022-08-25T22:05:43.233Z,7.55
2022-08-25T22:08:22.404Z,10.35
2022-08-25T22:11:07.901Z,8.07
2022-08-25T22:13:44.413Z,7.72
2022-08-25T22:16:21.454Z,7.22
2022-08-25T22:18:57.495Z,7.32
2022-08-25T22:21:33.803Z,8.23
2022-08-25T22:26:47.791Z,7.97
2022-08-25T22:29:25.978Z,8.25
2022-08-25T22:32:02.875Z,7.95
2022-08-25T22:34:40.205Z,8.32
2022-08-25T22:37:18.011Z,7.75
2022-08-25T22:39:53.259Z,8.80
2022-08-25T22:42:31.631Z,8.63
2022-08-25T22:45:06.024Z,7.90
2022-08-25T22:47:40.012Z,8.30
2022-08-25T22:50:17.285Z,9.30
2022-08-25T22:52:52.688Z,7.75
2022-08-25T22:55:28.102Z,7.35
2022-08-25T23:00:38.764Z,6.90
2022-08-25T23:03:13.176Z,6.65
2022-08-25T23:05:48.232Z,8.70
2022-08-25T23:08:39.204Z,9.63
2022-08-25T23:11:15.627Z,7.47
2022-08-25T23:13:52.814Z,9.17
2022-08-25T23:16:31.871Z,8.65
2022-08-25T23:19:08.546Z,7.35
2022-08-25T23:21:54.375Z,10.65
2022-08-25T23:24:30.975Z,10.15
2022-08-25T23:27:06.057Z,11.02
2022-08-25T23:29:46.339Z,8.63
2022-08-25T23:32:21.044Z,10.18
2022-08-25T23:34:55.215Z,10.30
2022-08-25T23:37:29.902Z,10.63
2022-08-25T23:40:05.002Z,8.15
2022-08-25T23:42:39.139Z,8.40
2022-08-25T23:45:19.667Z,9.50
2022-08-25T23:47:54.216Z,7.65
2022-08-25T23:50:29.080Z,7.90
2022-08-25T23:53:04.046Z,8.57
2022-08-25T23:55:38.019Z,8.17
2022-08-25T23:58:25.416Z,8.95
